Home > Products > Valid Products > TAF

000
FTUS43 KICT 281602 AAC
TAFCNU
TAF AMD
KCNU 281602Z 2816/2912 16005KT P6SM VCTS SCT035CB OVC080
      TEMPO 2816/2818 5SM TSRA BKN012CB OVC060
     FM281800 18012KT P6SM VCTS SCT035CB BKN120
     FM282300 16010KT P6SM SCT030 BKN100
     FM291000 15007KT P6SM VCTS OVC080CB=



000
FTUS43 KICT 281549 AAA
TAFHUT
TAF AMD
KHUT 281549Z 2816/2912 15012KT P6SM VCSH SCT025 OVC080
      TEMPO 2816/2818 BKN014
     FM281800 18012KT P6SM SCT050 BKN080
     FM290300 18010KT P6SM SCT035 BKN080
     FM290400 15007KT P6SM VCTS SCT025CB OVC080=



000
FTUS43 KICT 281540 AAB
TAFICT
TAF AMD
KICT 281540Z 2816/2912 13013KT P6SM SCT020 BKN035
      TEMPO 2816/2818 BKN012
     FM281800 18012KT P6SM SCT050
     FM290300 16010KT P6SM BKN025
     FM290600 15008KT P6SM VCTS SCT025CB OVC080=



000
FTUS43 KICT 281540 AAB
TAFICT
TAF AMD
KICT 281540Z 2816/2912 13013KT P6SM SCT020 BKN035
      TEMPO 2816/2818 BKN012
     FM281800 18012KT P6SM SCT050
     FM290300 16010KT P6SM BKN025
     FM290600 15008KT P6SM VCTS SCT025CB OVC080=



000
FTUS43 KICT 281453 AAA
TAFRSL
TAF AMD
KRSL 281453Z 2815/2912 12010KT P6SM VCTS SCT025 OVC080CB
      TEMPO 2815/2817 6SM -TSRA BKN050CB
     FM281700 18012KT P6SM SCT050
     FM290400 14007KT P6SM VCTS SCT025CB OVC080=



000
FTUS43 KICT 281453 AAA
TAFRSL
TAF AMD
KRSL 281453Z 2815/2912 12010KT P6SM VCTS SCT025 OVC080CB
      TEMPO 2815/2817 6SM -TSRA BKN050CB
     FM281700 18012KT P6SM SCT050
     FM290400 14007KT P6SM VCTS SCT025CB OVC080=



000
FTUS43 KICT 281452 AAB
TAFCNU
TAF AMD
KCNU 281452Z 2815/2912 16005KT P6SM VCTS SCT035CB OVC080
      TEMPO 2815/2818 5SM TSRA BKN035CB OVC060
     FM281800 18012KT P6SM VCTS SCT035CB BKN120
     FM282300 16010KT P6SM SCT030 BKN100
     FM291000 15007KT P6SM VCTS OVC080CB=



000
FTUS43 KICT 281452 AAB
TAFCNU
TAF AMD
KCNU 281452Z 2815/2912 16005KT P6SM VCTS SCT035CB OVC080
      TEMPO 2815/2818 5SM TSRA BKN035CB OVC060
     FM281800 18012KT P6SM VCTS SCT035CB BKN120
     FM282300 16010KT P6SM SCT030 BKN100
     FM291000 15007KT P6SM VCTS OVC080CB=



000
FTUS43 KICT 281249 AAA
TAFCNU
TAF AMD
KCNU 281249Z 2813/2912 16005KT P6SM VCTS SCT035CB OVC080
      TEMPO 2813/2816 5SM TSRA OVC035CB
     FM281600 16010KT P6SM BKN120
     FM281900 18012KT P6SM VCTS SCT035CB BKN120
     FM282300 16010KT P6SM SCT030 BKN100
     FM291000 15007KT P6SM VCTS OVC080CB=



000
FTUS43 KICT 281249 AAA
TAFCNU
TAF AMD
KCNU 281249Z 2813/2912 16005KT P6SM VCTS SCT035CB OVC080
      TEMPO 2813/2816 5SM TSRA OVC035CB
     FM281600 16010KT P6SM BKN120
     FM281900 18012KT P6SM VCTS SCT035CB BKN120
     FM282300 16010KT P6SM SCT030 BKN100
     FM291000 15007KT P6SM VCTS OVC080CB=



000
FTUS43 KICT 281248 AAA
TAFICT
TAF AMD
KICT 281248Z 2813/2912 13007KT P6SM BKN025 OVC100
     FM281400 17008KT P6SM VCSH SCT025 OVC080
     FM281800 18012KT P6SM SCT050
     FM290300 16010KT P6SM BKN025
     FM290600 15008KT P6SM VCTS SCT025CB OVC080=



000
FTUS43 KICT 281248 AAA
TAFICT
TAF AMD
KICT 281248Z 2813/2912 13007KT P6SM BKN025 OVC100
     FM281400 17008KT P6SM VCSH SCT025 OVC080
     FM281800 18012KT P6SM SCT050
     FM290300 16010KT P6SM BKN025
     FM290600 15008KT P6SM VCTS SCT025CB OVC080=



000
FTUS43 KICT 281131
TAFSLN
TAF
KSLN 281131Z 2812/2912 12005KT P6SM OVC080
     FM281500 18007KT P6SM VCSH SCT025 BKN080
     FM281900 18012KT P6SM SCT050
     FM290600 15007KT P6SM VCTS SCT025CB OVC080=



000
FTUS43 KICT 281131
TAFICT
TAF
KICT 281131Z 2812/2912 13007KT P6SM SCT060 OVC100
     FM281400 17008KT P6SM VCSH SCT025 OVC080
     FM281800 18012KT P6SM SCT050
     FM290300 16010KT P6SM BKN025
     FM290600 15008KT P6SM VCTS SCT025CB OVC080=



000
FTUS43 KICT 281131
TAFCNU
TAF
KCNU 281131Z 2812/2912 16005KT P6SM VCTS SCT035CB OVC080
      TEMPO 2812/2814 5SM TSRA OVC035CB
     FM281500 16010KT P6SM BKN120
     FM281800 18012KT P6SM VCTS SCT035CB BKN120
     FM282300 16010KT P6SM SCT030 BKN100
     FM291000 15007KT P6SM VCTS OVC080CB=



000
FTUS43 KICT 281131
TAFRSL
TAF
KRSL 281131Z 2812/2912 08007KT P6SM VCSH SCT025 OVC080
      TEMPO 2813/2817 -SHRA BKN050
     FM281700 18012KT P6SM SCT050
     FM290400 14007KT P6SM VCTS SCT025CB OVC080=



000
FTUS43 KICT 281131
TAFHUT
TAF
KHUT 281131Z 2812/2912 15008KT P6SM VCSH SCT025 OVC080
     FM281700 18012KT P6SM SCT050
     FM290300 18010KT P6SM SCT035 BKN080
     FM290400 15007KT P6SM VCTS SCT025CB OVC080=



000
FTUS43 KICT 281131
TAFCNU
TAF
KCNU 281131Z 2812/2912 16005KT P6SM VCTS SCT035CB OVC080
      TEMPO 2812/2814 5SM TSRA OVC035CB
     FM281500 16010KT P6SM BKN120
     FM281800 18012KT P6SM VCTS SCT035CB BKN120
     FM282300 16010KT P6SM SCT030 BKN100
     FM291000 15007KT P6SM VCTS OVC080CB=



000
FTUS43 KICT 281131
TAFICT
TAF
KICT 281131Z 2812/2912 13007KT P6SM SCT060 OVC100
     FM281400 17008KT P6SM VCSH SCT025 OVC080
     FM281800 18012KT P6SM SCT050
     FM290300 16010KT P6SM BKN025
     FM290600 15008KT P6SM VCTS SCT025CB OVC080=



000
FTUS43 KICT 281131
TAFSLN
TAF
KSLN 281131Z 2812/2912 12005KT P6SM OVC080
     FM281500 18007KT P6SM VCSH SCT025 BKN080
     FM281900 18012KT P6SM SCT050
     FM290600 15007KT P6SM VCTS SCT025CB OVC080=



000
FTUS43 KICT 281131
TAFRSL
TAF
KRSL 281131Z 2812/2912 08007KT P6SM VCSH SCT025 OVC080
      TEMPO 2813/2817 -SHRA BKN050
     FM281700 18012KT P6SM SCT050
     FM290400 14007KT P6SM VCTS SCT025CB OVC080=



000
FTUS43 KICT 281131
TAFHUT
TAF
KHUT 281131Z 2812/2912 15008KT P6SM VCSH SCT025 OVC080
     FM281700 18012KT P6SM SCT050
     FM290300 18010KT P6SM SCT035 BKN080
     FM290400 15007KT P6SM VCTS SCT025CB OVC080=



000
FTUS43 KICT 280955 AAB
TAFSLN
TAF AMD
KSLN 280955Z 2810/2906 VRB05KT P6SM VCSH BKN100
     FM281100 13005KT P6SM SCT080 BKN250
     FM281500 18007KT P6SM VCTS BKN050CB
     FM290300 18012KT P6SM SCT030 BKN120=



000
FTUS43 KICT 280953 AAA
TAFRSL
TAF AMD
KRSL 280953Z 2810/2906 18007KT P6SM VCSH SCT080 OVC250
      TEMPO 2810/2814 -SHRA BKN050
     FM281500 18018G25KT P6SM BKN050
     FM290300 18012KT P6SM SCT030 BKN120=



000
FTUS43 KICT 280953 AAA
TAFRSL
TAF AMD
KRSL 280953Z 2810/2906 18007KT P6SM VCSH SCT080 OVC250
      TEMPO 2810/2814 -SHRA BKN050
     FM281500 18018G25KT P6SM BKN050
     FM290300 18012KT P6SM SCT030 BKN120=



000
FTUS43 KICT 280952 AAA
TAFCNU
TAF AMD
KCNU 280952Z 2810/2906 16005KT P6SM VCTS SCT035CB OVC080
      TEMPO 2810/2814 VRB15G25KT 5SM TSRA OVC035CB
     FM281500 18012KT P6SM BKN120
     FM281800 18015G22KT P6SM VCTS SCT035CB BKN120
     FM290300 16010KT P6SM SCT030 BKN100=



000
FTUS43 KICT 280950 AAB
TAFHUT
TAF AMD
KHUT 280950Z 2810/2906 VRB05KT P6SM BKN250
     FM281200 15008KT P6SM VCSH BKN035
     FM281600 18015G22KT P6SM BKN120
     FM290300 18010KT P6SM BKN025=



000
FTUS43 KICT 280949 AAC
TAFICT
TAF AMD
KICT 280949Z 2810/2906 13007KT P6SM SCT040 BKN100
     FM281400 17005KT P6SM VCTS BKN050CB OVC120
     FM281700 18015G22KT P6SM BKN120
     FM290300 16010KT P6SM BKN025=



000
FTUS43 KICT 280949 AAC
TAFICT
TAF AMD
KICT 280949Z 2810/2906 13007KT P6SM SCT040 BKN100
     FM281400 17005KT P6SM VCTS BKN050CB OVC120
     FM281700 18015G22KT P6SM BKN120
     FM290300 16010KT P6SM BKN025=



000
FTUS43 KICT 280710 AAB
TAFICT
TAF AMD
KICT 280710Z 2807/2906 15007KT P6SM VCTS SCT035CB BKN120
      TEMPO 2807/2808 VRB25G40KT 11/2SM +TSRA SCT015 BKN035CB
     FM280800 09007KT P6SM -TSRA BKN035CB
     FM281700 18015G22KT P6SM BKN120
     FM290300 16010KT P6SM BKN025=



000
FTUS43 KICT 280646 AAA
TAFHUT
TAF AMD
KHUT 280646Z 2807/2906 VRB05KT P6SM -SHRA VCTS BKN040CB
      TEMPO 2807/2808 4SM TSRA
     FM280800 15008KT P6SM VCSH BKN035
     FM281200 15010KT P6SM BKN050
     FM281500 18015G22KT P6SM BKN120
     FM290300 18010KT P6SM BKN025=



000
FTUS43 KICT 280646 AAA
TAFHUT
TAF AMD
KHUT 280646Z 2807/2906 VRB05KT P6SM -SHRA VCTS BKN040CB
      TEMPO 2807/2808 4SM TSRA
     FM280800 15008KT P6SM VCSH BKN035
     FM281200 15010KT P6SM BKN050
     FM281500 18015G22KT P6SM BKN120
     FM290300 18010KT P6SM BKN025=



000
FTUS43 KICT 280644 AAA
TAFSLN
TAF AMD
KSLN 280644Z 2807/2906 VRB05KT P6SM -SHRA VCTS SCT040CB BKN100
      TEMPO 2807/2809 5SM -TSRA SCT015 OVC040CB
     FM281000 15010KT P6SM VCTS BKN025CB
     FM281500 18018G25KT P6SM BKN050
     FM290300 18012KT P6SM SCT030 BKN120=



000
FTUS43 KICT 280609 CCA
TAFICT
TAF COR
KICT 280609Z 2806/2906 15007KT P6SM VCTS SCT035CB BKN120
      TEMPO 2806/2808 VRB15G30KT 2SM +TSRA SCT015 BKN035CB
     FM280800 09007KT P6SM -TSRA BKN035CB
     FM281700 18015G22KT P6SM BKN120
     FM290300 16010KT P6SM BKN025=



000
FTUS43 KICT 280609 CCA
TAFICT
TAF COR
KICT 280609Z 2806/2906 15007KT P6SM VCTS SCT035CB BKN120
      TEMPO 2806/2808 VRB15G30KT 2SM +TSRA SCT015 BKN035CB
     FM280800 09007KT P6SM -TSRA BKN035CB
     FM281700 18015G22KT P6SM BKN120
     FM290300 16010KT P6SM BKN025=



000
FTUS43 KICT 280607 AAA
TAFICT
TAF AMD
KICT 280607Z 2806/2906 15007KT P6SM VCTS SCT035CB BKN120
      TEMPO 2806/2808 VRB15G30KT P6SM SCT015 BKN035CB
     FM280800 09007KT P6SM -TSRA BKN035CB
     FM281700 18015G22KT P6SM BKN120
     FM290300 16010KT P6SM BKN025=



000
FTUS43 KICT 280520
TAFRSL
TAF
KRSL 280520Z 2806/2906 15009KT P6SM VCTS SCT035CB BKN100
      TEMPO 2806/2810 -TSRA
     FM281000 15010KT P6SM VCTS BKN025CB
     FM281500 18018G25KT P6SM BKN050
     FM290300 18012KT P6SM SCT030 BKN120=



000
FTUS43 KICT 280520
TAFHUT
TAF
KHUT 280520Z 2806/2906 15010KT P6SM VCTS BKN035CB
      TEMPO 2806/2808 2SM -TSRA
     FM280800 15008KT 6SM -TSRA BKN035CB
     FM281200 15010KT P6SM BKN050
     FM281500 18015G22KT P6SM BKN120
     FM290300 18010KT P6SM BKN025=



000
FTUS43 KICT 280520
TAFCNU
TAF
KCNU 280520Z 2806/2906 12005KT P6SM SCT035
     FM281100 14005KT P6SM VCTS BKN035CB
     FM281500 18012KT P6SM BKN120
     FM281800 18015G22KT P6SM VCTS SCT035CB BKN120
     FM290300 16010KT P6SM SCT030 BKN100=



000
FTUS43 KICT 280520
TAFICT
TAF
KICT 280520Z 2806/2906 15010KT P6SM SCT035 BKN120
     FM280800 15008KT P6SM VCTS BKN035CB
      TEMPO 2808/2811 2SM -TSRA
     FM281100 15010KT P6SM -TSRA BKN035CB
     FM281700 18015G22KT P6SM BKN120
     FM290300 16010KT P6SM BKN025=



000
FTUS43 KICT 280520
TAFSLN
TAF
KSLN 280520Z 2806/2906 15012KT P6SM -TSRA SCT035CB BKN100
      TEMPO 2806/2808 2SM -TSRA
     FM281100 15010KT P6SM VCTS BKN025CB
     FM281500 18018G25KT P6SM BKN050
     FM290300 18012KT P6SM SCT030 BKN120=



000
FTUS43 KICT 280403 AAA
TAFSLN
TAF AMD
KSLN 280403Z 2804/2824 15012KT P6SM VCTS SCT035CB BKN100
      TEMPO 2804/2808 -TSRA
     FM281100 15010KT P6SM VCTS BKN025CB
     FM281500 18015G22KT P6SM BKN050=



000
FTUS43 KICT 280403 AAA
TAFSLN
TAF AMD
KSLN 280403Z 2804/2824 15012KT P6SM VCTS SCT035CB BKN100
      TEMPO 2804/2808 -TSRA
     FM281100 15010KT P6SM VCTS BKN025CB
     FM281500 18015G22KT P6SM BKN050=



000
FTUS43 KICT 280111 AAA
TAFRSL
TAF AMD
KRSL 280111Z 2801/2824 13009KT P6SM VCTS SCT035CB BKN100
      TEMPO 2802/2806 -TSRA
     FM281000 15010KT P6SM VCTS BKN025CB
     FM281500 18015G22KT P6SM BKN050=



000
FTUS43 KICT 272331
TAFCNU
TAF
KCNU 272331Z 2800/2824 12005KT P6SM SCT035
     FM281000 14005KT P6SM VCTS BKN035CB
     FM281500 18012KT P6SM BKN120
     FM281800 18015G22KT P6SM VCTS SCT035 BKN120CB=



000
FTUS43 KICT 272331
TAFICT
TAF
KICT 272331Z 2800/2824 14010KT P6SM SCT035 BKN250
     FM280200 15010KT P6SM VCTS BKN035CB
      TEMPO 2802/2805 -TSRA
     FM281100 15010KT P6SM VCTS BKN050CB
     FM281500 18015G22KT P6SM BKN120=



000
FTUS43 KICT 272331
TAFHUT
TAF
KHUT 272331Z 2800/2824 14012KT P6SM SCT035 BKN250
     FM280100 15010KT P6SM VCTS BKN035CB
      TEMPO 2802/2805 -TSRA
     FM281200 15010KT P6SM BKN050
     FM281500 18015G22KT P6SM BKN120=



000
FTUS43 KICT 272331
TAFSLN
TAF
KSLN 272331Z 2800/2824 14010KT P6SM SCT050 SCT120
     FM280400 15012KT P6SM VCTS SCT035CB BKN100
      TEMPO 2805/2808 -TSRA
     FM281100 15010KT P6SM VCTS BKN025CB
     FM281500 18015G22KT P6SM BKN050=



000
FTUS43 KICT 272331
TAFRSL
TAF
KRSL 272331Z 2800/2824 13010KT P6SM SCT100
     FM280200 15012KT P6SM VCTS SCT035CB BKN100
      TEMPO 2803/2806 -TSRA
     FM281000 15010KT P6SM VCTS BKN025CB
     FM281500 18015G22KT P6SM BKN050=



000
FTUS43 KICT 271724
TAFHUT
TAF
KHUT 271724Z 2718/2818 14012KT P6SM SCT035 BKN250
     FM280100 15010KT P6SM VCTS BKN035CB
     FM281000 15010KT P6SM BKN050=



000
FTUS43 KICT 271724
TAFCNU
TAF
KCNU 271724Z 2718/2818 12005KT P6SM SCT035
     FM280800 14005KT P6SM VCTS BKN035CB=



000
FTUS43 KICT 271724
TAFSLN
TAF
KSLN 271724Z 2718/2818 14010KT P6SM SCT050 SCT120
     FM280300 15012KT P6SM VCTS SCT035CB BKN100=



000
FTUS43 KICT 271724
TAFRSL
TAF
KRSL 271724Z 2718/2818 13012KT P6SM SCT100
     FM280100 15012KT P6SM VCTS SCT035CB BKN100
     FM281000 15010KT P6SM VCTS BKN025CB=



000
FTUS43 KICT 271724
TAFICT
TAF
KICT 271724Z 2718/2818 14013KT P6SM SCT035 BKN250
     FM280200 15010KT P6SM VCTS BKN035CB
     FM281100 15010KT P6SM BKN050=



000
FTUS43 KICT 271135
TAFSLN
TAF
KSLN 271135Z 2712/2812 VRB05KT P6SM SCT250
     FM271800 14010KT P6SM SCT050 SCT120
     FM280300 14008KT P6SM VCTS SCT050CB OVC080=



000
FTUS43 KICT 271135
TAFCNU
TAF
KCNU 271135Z 2712/2812 16007KT P6SM FEW080 SCT250
     FM271400 15007KT P6SM SCT030
     FM271800 18010KT P6SM SCT040
     FM280900 16007KT P6SM BKN035=



000
FTUS43 KICT 271135
TAFICT
TAF
KICT 271135Z 2712/2812 VRB05KT P6SM SCT100 BKN150
     FM271400 09007KT P6SM FEW035
     FM271700 15010KT P6SM VCTS BKN050CB
     FM272100 15010KT P6SM SCT050 BKN250
     FM280700 16007KT P6SM VCTS BKN035CB=



000
FTUS43 KICT 271135
TAFHUT
TAF
KHUT 271135Z 2712/2812 VRB03KT P6SM BKN250
     FM271400 12006KT P6SM FEW035
     FM271700 14010KT P6SM VCTS BKN050CB
     FM272100 16010KT P6SM SCT050 BKN250
     FM280400 14008KT P6SM VCTS SCT050CB OVC080
     FM281000 15007KT P6SM SCT050 OVC150=



000
FTUS43 KICT 271135
TAFRSL
TAF
KRSL 271135Z 2712/2812 VRB05KT P6SM SCT080 BKN250
     FM271800 13012KT P6SM SCT120
     FM280400 13012KT P6SM VCTS SCT050CB OVC080=



000
FTUS43 KICT 271030 AAA
TAFHUT
TAF AMD
KHUT 271030Z 2711/2806 VRB03KT P6SM SCT100
     FM271400 12006KT P6SM FEW030
     FM271800 13010KT P6SM SCT040
     FM280200 14008KT P6SM VCTS SCT050CB OVC080=



000
FTUS43 KICT 271030 AAC
TAFICT
TAF AMD
KICT 271030Z 2711/2806 VRB03KT P6SM SCT100 BKN150
     FM271400 12006KT P6SM FEW030
     FM271800 13011KT P6SM SCT040
     FM280300 15008KT P6SM VCTS SCT050CB OVC080=



000
FTUS43 KICT 271030 AAA
TAFSLN
TAF AMD
KSLN 271030Z 2711/2806 VRB04KT P6SM FEW080
     FM271800 14010KT P6SM SCT050 SCT120
     FM280300 14008KT P6SM VCTS SCT050CB OVC080=



000
FTUS43 KICT 270959 AAB
TAFCNU
TAF AMD
KCNU 270959Z 2710/2806 VRB03KT P6SM FEW080 SCT250
     FM271400 12005KT P6SM SCT030
     FM271800 15008KT P6SM SCT040=



000
FTUS43 KICT 270725 AAA
TAFCNU
TAF AMD
KCNU 270725Z 2707/2806 18005KT 5SM BR FEW060 SCT250
      TEMPO 2707/2710 1SM BR
     FM271000 18006KT P6SM VCTS SCT060CB BKN090
     FM271400 12005KT P6SM SCT030
     FM271800 15008KT P6SM SCT040=



000
FTUS43 KICT 270520
TAFCNU
TAF
KCNU 270520Z 2706/2806 18005KT P6SM FEW060 SCT150
     FM270800 18006KT P6SM VCTS SCT060CB BKN090
     FM271400 12005KT P6SM SCT030
     FM271800 15008KT P6SM SCT040=



000
FTUS43 KICT 270520
TAFRSL
TAF
KRSL 270520Z 2706/2806 VRB05KT P6SM SCT200
     FM271000 13005KT P6SM SCT200
     FM271800 13012KT P6SM SCT120
     FM280000 13012KT P6SM VCTS SCT050CB OVC080=



000
FTUS43 KICT 270520
TAFICT
TAF
KICT 270520Z 2706/2806 VRB03KT P6SM SCT100 BKN150
     FM271100 VRB03KT 4SM BR FEW150
     FM271400 12006KT P6SM FEW030
     FM271800 13011KT P6SM SCT040
     FM280300 15008KT P6SM VCTS SCT050CB OVC080=



000
FTUS43 KICT 270520
TAFSLN
TAF
KSLN 270520Z 2706/2806 VRB04KT P6SM FEW080
      TEMPO 2711/2714 4SM BR
     FM271800 14010KT P6SM SCT050 SCT120
     FM280300 14008KT P6SM VCTS SCT050CB OVC080=



000
FTUS43 KICT 270520
TAFHUT
TAF
KHUT 270520Z 2706/2806 VRB03KT P6SM SCT100
     FM271100 VRB04KT 4SM BR FEW150
     FM271400 12006KT P6SM FEW030
     FM271800 13010KT P6SM SCT040
     FM280200 14008KT P6SM VCTS SCT050CB OVC080=



000
FTUS43 KICT 270144 AAA
TAFICT
TAF AMD
KICT 270144Z 2702/2724 VRB06KT P6SM VCTS SCT050CB BKN080
     FM270500 VRB05KT P6SM BKN120
     FM271000 VRB04KT 4SM BR FEW150
     FM271400 12006KT P6SM FEW030
     FM272200 13011KT P6SM VCTS SCT050CB BKN120=



000
FTUS43 KICT 270144 AAA
TAFCNU
TAF AMD
KCNU 270144Z 2702/2724 19007KT P6SM VCTS SCT060CB BKN120
     FM270500 16005KT P6SM BKN120
     FM270800 18004KT 4SM BR SCT015
     FM271400 12005KT P6SM SCT030=



000
FTUS43 KICT 270144 AAA
TAFICT
TAF AMD
KICT 270144Z 2702/2724 VRB06KT P6SM VCTS SCT050CB BKN080
     FM270500 VRB05KT P6SM BKN120
     FM271000 VRB04KT 4SM BR FEW150
     FM271400 12006KT P6SM FEW030
     FM272200 13011KT P6SM VCTS SCT050CB BKN120=



000
FTUS43 KICT 262320
TAFSLN
TAF
KSLN 262320Z 2700/2724 31008KT P6SM SCT060
     FM270200 VRB05KT P6SM FEW080
      TEMPO 2710/2714 4SM BR
     FM271800 14010KT P6SM SCT050 SCT120=



000
FTUS43 KICT 262320
TAFRSL
TAF
KRSL 262320Z 2700/2724 31008KT P6SM SCT080
     FM270200 VRB05KT P6SM FEW100
     FM271000 13005KT P6SM SCT150
      TEMPO 2710/2714 4SM BR
     FM272100 13012KT P6SM VCTS SCT050CB BKN100=



000
FTUS43 KICT 262320
TAFCNU
TAF
KCNU 262320Z 2700/2724 19008KT P6SM VCTS SCT060CB BKN100
      TEMPO 2700/2703 VRB20G35KT 3SM +TSRA OVC035CB
     FM270300 16005KT P6SM BKN120
     FM270800 18004KT 4SM BR SCT015
     FM271400 12005KT P6SM SCT030=



000
FTUS43 KICT 262320
TAFHUT
TAF
KHUT 262320Z 2700/2724 VRB05KT P6SM FEW050
     FM271000 VRB04KT 4SM BR FEW150
     FM271400 12006KT P6SM FEW030
     FM272200 13011KT P6SM VCTS SCT050CB BKN120=



000
FTUS43 KICT 262320
TAFICT
TAF
KICT 262320Z 2700/2724 VRB06KT P6SM VCTS SCT040CB BKN080
      TEMPO 2700/2703 VRB20G40KT 3SM +TSRA OVC035CB
     FM270300 VRB05KT P6SM BKN120
     FM271000 VRB04KT 4SM BR FEW150
     FM271400 12006KT P6SM FEW030
     FM272200 13011KT P6SM VCTS SCT050CB BKN120=



000
FTUS43 KICT 261724
TAFCNU
TAF
KCNU 261724Z 2618/2718 23012KT P6SM SCT030
      TEMPO 2618/2621 BKN030
     FM270000 19006KT P6SM VCTS SCT030CB BKN100
     FM270800 18004KT 4SM BR SCT015
     FM271400 12005KT P6SM SCT020=



000
FTUS43 KICT 261724
TAFICT
TAF
KICT 261724Z 2618/2718 23011KT P6SM FEW100 SCT250
     FM262200 21010KT P6SM VCTS SCT040CB BKN100
     FM270000 18006KT P6SM VCTS SCT035 BKN090CB
     FM270800 VRB03KT 4SM BR SCT015
     FM271400 13006KT P6SM SCT020=



000
FTUS43 KICT 261724
TAFHUT
TAF
KHUT 261724Z 2618/2718 26012KT P6SM SCT250
     FM270000 VRB03KT P6SM SCT100
      TEMPO 2709/2713 5SM BR
     FM271400 12006KT P6SM FEW020=



000
FTUS43 KICT 261724
TAFSLN
TAF
KSLN 261724Z 2618/2718 30013KT P6SM SCT035
      TEMPO 2618/2621 BKN030
     FM270000 35004KT P6SM SKC
     FM270600 06005KT P6SM SKC
     FM271400 09005KT P6SM SCT150=



000
FTUS43 KICT 261724
TAFRSL
TAF
KRSL 261724Z 2618/2718 31012KT P6SM SCT040
     FM270000 34005KT P6SM SKC
     FM270500 06005KT P6SM SKC
     FM271200 11006KT P6SM SCT150=



000
FTUS43 KICT 261724
TAFRSL
TAF
KRSL 261724Z 2618/2718 31012KT P6SM SCT040
     FM270000 34005KT P6SM SKC
     FM270500 06005KT P6SM SKC
     FM271200 11006KT P6SM SCT150=



000
FTUS43 KICT 261724
TAFSLN
TAF
KSLN 261724Z 2618/2718 30013KT P6SM SCT035
      TEMPO 2618/2621 BKN030
     FM270000 35004KT P6SM SKC
     FM270600 06005KT P6SM SKC
     FM271400 09005KT P6SM SCT150=



000
FTUS43 KICT 261724
TAFCNU
TAF
KCNU 261724Z 2618/2718 23012KT P6SM SCT030
      TEMPO 2618/2621 BKN030
     FM270000 19006KT P6SM VCTS SCT030CB BKN100
     FM270800 18004KT 4SM BR SCT015
     FM271400 12005KT P6SM SCT020=



000
FTUS43 KICT 261724
TAFICT
TAF
KICT 261724Z 2618/2718 23011KT P6SM FEW100 SCT250
     FM262200 21010KT P6SM VCTS SCT040CB BKN100
     FM270000 18006KT P6SM VCTS SCT035 BKN090CB
     FM270800 VRB03KT 4SM BR SCT015
     FM271400 13006KT P6SM SCT020=



000
FTUS43 KICT 261724
TAFHUT
TAF
KHUT 261724Z 2618/2718 26012KT P6SM SCT250
     FM270000 VRB03KT P6SM SCT100
      TEMPO 2709/2713 5SM BR
     FM271400 12006KT P6SM FEW020=



000
FTUS43 KICT 261612 AAA
TAFSLN
TAF AMD
KSLN 261612Z 2616/2712 28012KT P6SM BKN030
     FM270200 VRB05KT P6SM BKN080=



000
FTUS43 KICT 261612 AAA
TAFSLN
TAF AMD
KSLN 261612Z 2616/2712 28012KT P6SM BKN030
     FM270200 VRB05KT P6SM BKN080=



000
FTUS43 KICT 261520 AAA
TAFICT
TAF AMD
KICT 261520Z 2615/2712 23012KT P6SM FEW250
     FM261800 22010KT P6SM SCT035
     FM270000 19005KT P6SM SCT080=



000
FTUS43 KICT 261159 CCB
TAFCNU
TAF COR
KCNU 261159Z 2612/2712 16008KT P6SM BKN025
      TEMPO 2612/2613 BKN015
     FM261300 23007KT P6SM SCT040
     FM270000 19005KT P6SM BKN080
     FM270300 19005KT P6SM VCTS BKN050CB
     FM270900 VRB05KT P6SM BKN025=



000
FTUS43 KICT 261159 CCB
TAFCNU
TAF COR
KCNU 261159Z 2612/2712 16008KT P6SM BKN025
      TEMPO 2612/2613 BKN015
     FM261300 23007KT P6SM SCT040
     FM270000 19005KT P6SM BKN080
     FM270300 19005KT P6SM VCTS BKN050CB
     FM270900 VRB05KT P6SM BKN025=



000
FTUS43 KICT 261152 CCA
TAFICT
TAF COR
KICT 261152Z 2612/2712 20005KT P6SM FEW120 BKN250
     FM261700 22007KT P6SM SCT035
     FM270000 19005KT P6SM SCT080=



000
FTUS43 KICT 261152 CCA
TAFSLN
TAF COR
KSLN 261152Z 2612/2712 20007KT P6SM FEW090
     FM261700 29010KT P6SM BKN050
     FM270200 VRB05KT P6SM BKN080=



000
FTUS43 KICT 261152 CCA
TAFCNU
TAF COR
KCNU 261152Z 2612/2712 16008KT P6SM BKN035
     FM261500 23007KT P6SM SCT040
     FM270000 19005KT P6SM BKN080
     FM270300 19005KT P6SM VCTS BKN050CB
     FM270900 VRB05KT P6SM BKN025=



000
FTUS43 KICT 261152 CCA
TAFRSL
TAF COR
KRSL 261152Z 2612/2712 27010KT P6SM SCT250
     FM261600 31012KT P6SM BKN050
     FM270200 04005KT P6SM BKN100=



000
FTUS43 KICT 261152 CCA
TAFHUT
TAF COR
KHUT 261152Z 2612/2712 25010KT P6SM FEW080
     FM261800 31007KT P6SM SCT040
     FM270000 19005KT P6SM BKN080=



000
FTUS43 KICT 261140
TAFCNU
TAF
KCNU 261140Z 2612/2712 16008KT P6SM BKN035
     FM261500 23007KT P6SM SCT040=



000
FTUS43 KICT 261140
TAFCNU
TAF
KCNU 261140Z 2612/2712 16008KT P6SM BKN035
     FM261500 23007KT P6SM SCT040=



000
FTUS43 KICT 261140
TAFRSL
TAF
KRSL 261140Z 2612/2712 27010KT P6SM SCT250
     FM261600 31012KT P6SM BKN050
     FM270200 04005KT P6SM BKN100=



000
FTUS43 KICT 261140
TAFHUT
TAF
KHUT 261140Z 2612/2712 25010KT P6SM FEW080
     FM261800 31007KT P6SM SCT040=



000
FTUS43 KICT 261140
TAFSLN
TAF
KSLN 261140Z 2612/2712 20007KT P6SM FEW090
     FM261700 29010KT P6SM BKN050=



000
FTUS43 KICT 261140
TAFICT
TAF
KICT 261140Z 2612/2712 20005KT P6SM FEW120 BKN250
     FM261700 22007KT P6SM SCT035=



000
FTUS43 KICT 261140
TAFICT
TAF
KICT 261140Z 2612/2712 20005KT P6SM FEW120 BKN250
     FM261700 22007KT P6SM SCT035=



000
FTUS43 KICT 261140
TAFSLN
TAF
KSLN 261140Z 2612/2712 20007KT P6SM FEW090
     FM261700 29010KT P6SM BKN050=



000
FTUS43 KICT 261140
TAFRSL
TAF
KRSL 261140Z 2612/2712 27010KT P6SM SCT250
     FM261600 31012KT P6SM BKN050
     FM270200 04005KT P6SM BKN100=



000
FTUS43 KICT 261140
TAFHUT
TAF
KHUT 261140Z 2612/2712 25010KT P6SM FEW080
     FM261800 31007KT P6SM SCT040=



000
FTUS43 KICT 260929 AAB
TAFICT
TAF AMD
KICT 260929Z 2609/2706 VRB05KT P6SM BKN150
     FM261300 18007KT P6SM SCT250
     FM261700 22007KT P6SM SCT035
     FM262000 19008KT P6SM VCTS SCT040CB BKN070=



000
FTUS43 KICT 260603 AAA
TAFHUT
TAF AMD
KHUT 260603Z 2606/2706 VRB05KT P6SM -RA SCT040 BKN070
      TEMPO 2606/2607 VRB15G25KT 1SM +TSRA SCT015 OVC050CB
     FM261000 VRB06KT 4SM BR SCT008 BKN200
     FM261700 25007KT P6SM SCT040
     FM262000 VRB06KT P6SM VCTS SCT040CB BKN070=



000
FTUS43 KICT 260520
TAFICT
TAF
KICT 260520Z 2606/2706 VRB06KT P6SM -RA SCT040 OVC090
      TEMPO 2606/2610 VRB15G25KT 5SM SHRA OVC035
     FM261000 19004KT 3SM BR SCT005 BKN200
     FM261700 22007KT P6SM SCT035
     FM262000 19008KT P6SM VCTS SCT040CB BKN070=



000
FTUS43 KICT 260520
TAFCNU
TAF
KCNU 260520Z 2606/2706 17009KT P6SM VCSH SCT040 BKN100
      TEMPO 2606/2610 VRB15G25KT 4SM SHRA BKN035 OVC070
     FM261000 16005KT 3SM BR SCT005 BKN200
     FM261700 23007KT P6SM SCT030
     FM262000 20008KT P6SM VCTS SCT040CB BKN070=



000
FTUS43 KICT 260520
TAFRSL
TAF
KRSL 260520Z 2606/2706 VRB06KT P6SM VCTS SCT025 OVC050CB
     FM261000 27007KT P6SM SCT150
     FM262000 26008KT P6SM VCTS SCT040CB BKN080
     FM270200 04005KT P6SM SCT150=



000
FTUS43 KICT 260520
TAFSLN
TAF
KSLN 260520Z 2606/2706 18012G21KT P6SM VCTS SCT040CB BKN100
      TEMPO 2606/2609 VRB15G25KT 5SM SHRA OVC030
     FM261100 23009KT P6SM SCT008 SCT150
     FM261700 27008KT P6SM SCT040
     FM262000 26010KT P6SM VCTS SCT040CB BKN080=



000
FTUS43 KICT 260520
TAFSLN
TAF
KSLN 260520Z 2606/2706 18012G21KT P6SM VCTS SCT040CB BKN100
      TEMPO 2606/2609 VRB15G25KT 5SM SHRA OVC030
     FM261100 23009KT P6SM SCT008 SCT150
     FM261700 27008KT P6SM SCT040
     FM262000 26010KT P6SM VCTS SCT040CB BKN080=



000
FTUS43 KICT 260520
TAFRSL
TAF
KRSL 260520Z 2606/2706 VRB06KT P6SM VCTS SCT025 OVC050CB
     FM261000 27007KT P6SM SCT150
     FM262000 26008KT P6SM VCTS SCT040CB BKN080
     FM270200 04005KT P6SM SCT150=



000
FTUS43 KICT 260520
TAFHUT
TAF
KHUT 260520Z 2606/2706 VRB06KT P6SM -RA SCT040 BKN070
      TEMPO 2606/2610 VRB15G25KT 3SM SHRA OVC035
     FM261000 VRB06KT 4SM BR SCT008 BKN200
     FM261700 25007KT P6SM SCT040
     FM262000 VRB06KT P6SM VCTS SCT040CB BKN070=



000
FTUS43 KICT 260520
TAFHUT
TAF
KHUT 260520Z 2606/2706 VRB06KT P6SM -RA SCT040 BKN070
      TEMPO 2606/2610 VRB15G25KT 3SM SHRA OVC035
     FM261000 VRB06KT 4SM BR SCT008 BKN200
     FM261700 25007KT P6SM SCT040
     FM262000 VRB06KT P6SM VCTS SCT040CB BKN070=



000
FTUS43 KICT 260520
TAFICT
TAF
KICT 260520Z 2606/2706 VRB06KT P6SM -RA SCT040 OVC090
      TEMPO 2606/2610 VRB15G25KT 5SM SHRA OVC035
     FM261000 19004KT 3SM BR SCT005 BKN200
     FM261700 22007KT P6SM SCT035
     FM262000 19008KT P6SM VCTS SCT040CB BKN070=



000
FTUS43 KICT 260320 AAB
TAFICT
TAF AMD
KICT 260320Z 2603/2624 VRB06KT P6SM -RA OVC090
      TEMPO 2603/2607 VRB15G20KT 5SM SHRA OVC050
     FM261000 19003KT 3SM BR SCT005 BKN200
     FM261700 22007KT P6SM SCT035
     FM262000 19008KT P6SM VCTS SCT040CB BKN070=



000
FTUS43 KICT 260319 AAA
TAFHUT
TAF AMD
KHUT 260319Z 2603/2624 05010G19KT P6SM -SHRA OVC060
      TEMPO 2603/2607 VRB15G25KT 3SM TSRA OVC035CB
     FM260900 VRB05KT 4SM BR SCT008 BKN200
     FM261700 25007KT P6SM SCT040
     FM262000 VRB06KT P6SM VCTS SCT040CB BKN070=



000
FTUS43 KICT 260317 AAB
TAFSLN
TAF AMD
KSLN 260317Z 2603/2624 18012G21KT P6SM VCTS SCT040CB BKN100
      TEMPO 2603/2607 VRB15G25KT 5SM TSRA OVC030CB
     FM260900 23009KT P6SM SCT008 SCT150
     FM261700 27008KT P6SM SCT040=



000
FTUS43 KICT 260126 AAA
TAFSLN
TAF AMD
KSLN 260126Z 2601/2624 18012KT P6SM VCTS SCT040CB BKN100
      TEMPO 2601/2604 VRB15G25KT 5SM TSRA OVC030CB
     FM260400 17007KT P6SM SCT015 OVC150
     FM260900 23009KT P6SM SCT008 SCT150
     FM261700 27008KT P6SM SCT040=



000
FTUS43 KICT 260126 AAA
TAFSLN
TAF AMD
KSLN 260126Z 2601/2624 18012KT P6SM VCTS SCT040CB BKN100
      TEMPO 2601/2604 VRB15G25KT 5SM TSRA OVC030CB
     FM260400 17007KT P6SM SCT015 OVC150
     FM260900 23009KT P6SM SCT008 SCT150
     FM261700 27008KT P6SM SCT040=



000
FTUS43 KICT 260125 AAA
TAFRSL
TAF AMD
KRSL 260125Z 2601/2624 15010KT P6SM VCTS BKN050CB
     FM260400 VRB06KT P6SM SCT015 BKN050
     FM261000 27007KT P6SM SCT150
     FM261900 26008KT P6SM SCT040=



000
FTUS43 KICT 252330
TAFICT
TAF
KICT 252330Z 2600/2624 19012KT P6SM VCTS SCT030 BKN050CB
      TEMPO 2600/2604 VRB20G35KT 3SM +TSRA OVC025CB
     FM260400 17010KT P6SM VCTS SCT020 BKN060CB
     FM261000 19003KT 3SM BR SCT005 BKN200
     FM261700 22007KT P6SM SCT035
     FM262000 19008KT P6SM VCTS SCT040CB BKN070=



000
FTUS43 KICT 252330
TAFHUT
TAF
KHUT 252330Z 2600/2624 19014G22KT P6SM VCTS SCT040CB
      TEMPO 2600/2604 VRB20G40KT 3SM +TSRA OVC015CB
     FM260400 17007KT P6SM SCT015 OVC150
     FM260900 VRB05KT 4SM BR SCT008 BKN200
     FM261700 25007KT P6SM SCT040
     FM262000 VRB06KT P6SM VCTS SCT040CB BKN070=



000
FTUS43 KICT 252330
TAFRSL
TAF
KRSL 252330Z 2600/2624 23010KT P6SM VCTS BKN050CB
     FM260400 VRB06KT P6SM SCT015 BKN050
     FM261000 27007KT P6SM SCT150
     FM261900 26008KT P6SM SCT040=



000
FTUS43 KICT 252330
TAFCNU
TAF
KCNU 252330Z 2600/2624 17009KT P6SM VCTS SCT030CB
      TEMPO 2602/2606 VRB15G30KT 4SM TSRA OVC025CB
     FM260800 17007KT P6SM SCT005 BKN200
     FM261000 16005KT 3SM BR BKN005
     FM261700 23007KT P6SM SCT030
     FM262000 20008KT P6SM VCTS SCT040CB BKN070=



000
FTUS43 KICT 252330
TAFRSL
TAF
KRSL 252330Z 2600/2624 23010KT P6SM VCTS BKN050CB
     FM260400 VRB06KT P6SM SCT015 BKN050
     FM261000 27007KT P6SM SCT150
     FM261900 26008KT P6SM SCT040=



000
FTUS43 KICT 252330
TAFSLN
TAF
KSLN 252330Z 2600/2624 18012KT P6SM VCTS SCT040CB BKN100
      TEMPO 2600/2603 VRB25G40KT 1/2SM +TSRA OVC025CB
     FM260400 17007KT P6SM SCT015 OVC150
     FM260900 23009KT P6SM SCT008 SCT150
     FM261700 27008KT P6SM SCT040=



000
FTUS43 KICT 252330
TAFCNU
TAF
KCNU 252330Z 2600/2624 17009KT P6SM VCTS SCT030CB
      TEMPO 2602/2606 VRB15G30KT 4SM TSRA OVC025CB
     FM260800 17007KT P6SM SCT005 BKN200
     FM261000 16005KT 3SM BR BKN005
     FM261700 23007KT P6SM SCT030
     FM262000 20008KT P6SM VCTS SCT040CB BKN070=



000
FTUS43 KICT 252330
TAFICT
TAF
KICT 252330Z 2600/2624 19012KT P6SM VCTS SCT030 BKN050CB
      TEMPO 2600/2604 VRB20G35KT 3SM +TSRA OVC025CB
     FM260400 17010KT P6SM VCTS SCT020 BKN060CB
     FM261000 19003KT 3SM BR SCT005 BKN200
     FM261700 22007KT P6SM SCT035
     FM262000 19008KT P6SM VCTS SCT040CB BKN070=



000
FTUS43 KICT 252330
TAFHUT
TAF
KHUT 252330Z 2600/2624 19014G22KT P6SM VCTS SCT040CB
      TEMPO 2600/2604 VRB20G40KT 3SM +TSRA OVC015CB
     FM260400 17007KT P6SM SCT015 OVC150
     FM260900 VRB05KT 4SM BR SCT008 BKN200
     FM261700 25007KT P6SM SCT040
     FM262000 VRB06KT P6SM VCTS SCT040CB BKN070=



000
FTUS43 KICT 252330
TAFSLN
TAF
KSLN 252330Z 2600/2624 18012KT P6SM VCTS SCT040CB BKN100
      TEMPO 2600/2603 VRB25G40KT 1/2SM +TSRA OVC025CB
     FM260400 17007KT P6SM SCT015 OVC150
     FM260900 23009KT P6SM SCT008 SCT150
     FM261700 27008KT P6SM SCT040=



000
FTUS43 KICT 252150 AAB
TAFICT
TAF AMD
KICT 252150Z 2522/2618 19012G20KT P6SM VCTS SCT030 BKN050CB
      TEMPO 2522/2602 VRB20G35KT 3SM TSRA OVC025CB
     FM260300 17010KT P6SM SCT015 BKN050
     FM260600 17010KT P6SM SCT009 BKN015=



000
FTUS43 KICT 252138 AAA
TAFHUT
TAF AMD
KHUT 252138Z 2522/2618 17014G22KT P6SM VCTS SCT020 BKN040CB
      TEMPO 2522/2602 VRB20G40KT 2SM +TSRA OVC015CB
     FM260200 16007KT P6SM SCT015 BKN050
     FM260600 17010KT P6SM SCT009 BKN015=



000
FTUS43 KICT 252134 AAA
TAFSLN
TAF AMD
KSLN 252134Z 2522/2618 18012KT P6SM VCTS SCT040CB
      TEMPO 2522/2602 VRB25G40KT 1/2SM +TSRA OVC025CB
     FM260200 18013KT P6SM VCTS BKN035CB
     FM260400 16007KT P6SM SCT015 BKN050
     FM260700 17010KT P6SM SCT009 BKN015=



000
FTUS43 KICT 251740
TAFSLN
TAF
KSLN 251740Z 2518/2618 18012KT P6SM SCT020 BKN050
     FM252300 18013G20KT P6SM VCTS BKN050CB
     FM260400 16007KT P6SM SCT015 BKN050
     FM260700 17010KT P6SM SCT009 BKN015=



000
FTUS43 KICT 251740
TAFCNU
TAF
KCNU 251740Z 2518/2618 18012G20KT P6SM BKN050
     FM260000 17010KT P6SM VCTS BKN035CB
     FM260500 16007KT P6SM SCT015 BKN050
     FM260900 17007KT P6SM SCT009 BKN015=



000
FTUS43 KICT 251740
TAFICT
TAF
KICT 251740Z 2518/2618 18012G20KT P6SM SCT015 BKN025
     FM252200 19012G20KT P6SM VCTS BKN050CB
     FM260300 17010KT P6SM SCT015 BKN050
     FM260600 17010KT P6SM SCT009 BKN015=



000
FTUS43 KICT 251740
TAFHUT
TAF
KHUT 251740Z 2518/2618 15014G22KT P6SM SCT009 BKN025
     FM252200 18015G22KT P6SM VCTS BKN050CB
     FM260300 16007KT P6SM SCT015 BKN050
     FM260600 17010KT P6SM SCT009 BKN015=



000
FTUS43 KICT 251740
TAFRSL
TAF
KRSL 251740Z 2518/2618 19010KT P6SM SCT020 BKN050
     FM252300 20012G20KT P6SM VCTS BKN050CB
     FM260400 16007KT P6SM SCT015 BKN050
     FM260700 17010KT P6SM SCT009 BKN015=



    US Dept of Commerce
    National Oceanic and Atmospheric Administration
    National Weather Service
    1325 East West Highway
    Silver Spring, MD 20910
    Page Author: NWS Internet Services Team
Disclaimer
Information Quality
Credits
Glossary
Privacy Policy
Freedom of Information Act (FOIA)
About Us
Career Opportunities